Time;durP1;ratioP1;P1;durP2;ratioP2;P2;SDS_P1;SDS_P2;PMS_P1;PMS_P2;Temp;Humidity;BMP_temperature;BMP_pressure;BME280_temperature;BME280_humidity;BME280_pressure;Samples;Min_cycle;Max_cycle;Signal;HPM_P1;HPM_P2
2022/04/07 00:00:09;;;;;;;5.50;2.53;;;10.90;1.00;;;;;;5117394;28;20503;-71
2022/04/07 00:02:37;;;;;;;4.37;3.20;;;10.90;1.00;;;;;;5117154;28;20804;-71
2022/04/07 00:05:04;;;;;;;6.00;2.80;;;10.90;1.00;;;;;;5117333;28;20460;-71
2022/04/07 00:07:30;;;;;;;5.90;3.10;;;10.90;1.00;;;;;;5117448;28;20464;-71
2022/04/07 00:09:57;;;;;;;10.57;3.10;;;10.90;1.00;;;;;;5117035;28;20860;-71
2022/04/07 00:12:27;;;;;;;6.30;2.93;;;10.90;1.00;;;;;;5117043;28;20819;-71
2022/04/07 00:14:53;;;;;;;5.33;3.40;;;10.90;1.00;;;;;;5116949;28;20453;-72
2022/04/07 00:17:20;;;;;;;6.30;3.17;;;10.90;1.00;;;;;;5116952;28;20468;-71
2022/04/07 00:19:49;;;;;;;4.90;3.00;;;10.90;1.00;;;;;;5116912;28;20537;-70
2022/04/07 00:22:16;;;;;;;5.63;3.10;;;10.90;11.90;;;;;;5116705;28;20487;-71
2022/04/07 00:24:43;;;;;;;3.87;2.50;;;10.80;26.80;;;;;;5116817;28;20944;-70
2022/04/07 00:27:09;;;;;;;4.63;2.83;;;10.80;99.90;;;;;;5116467;28;20481;-71
2022/04/07 00:29:36;;;;;;;4.70;3.00;;;10.80;99.90;;;;;;5117984;28;20491;-71
2022/04/07 00:32:05;;;;;;;4.27;2.97;;;10.90;99.90;;;;;;5117838;28;20445;-71
2022/04/07 00:34:32;;;;;;;3.10;2.40;;;10.80;99.90;;;;;;5115364;28;20538;-70
2022/04/07 00:37:01;;;;;;;4.63;3.07;;;10.80;99.90;;;;;;5116877;28;20449;-70
2022/04/07 00:39:27;;;;;;;4.50;3.10;;;10.80;99.90;;;;;;5117300;28;20471;-71
2022/04/07 00:41:54;;;;;;;3.47;3.17;;;10.80;99.90;;;;;;5116774;28;20483;-71
2022/04/07 00:44:22;;;;;;;2.90;2.53;;;10.80;99.90;;;;;;5116737;28;20479;-72
2022/04/07 00:46:49;;;;;;;2.83;2.57;;;10.70;99.90;;;;;;5116824;28;20452;-71
2022/04/07 00:49:16;;;;;;;4.50;2.97;;;10.70;1.00;;;;;;5116842;28;20909;-71
2022/04/07 00:51:44;;;;;;;6.23;2.90;;;10.70;1.00;;;;;;5116440;28;20463;-71
2022/04/07 00:54:13;;;;;;;6.57;3.00;;;10.70;1.00;;;;;;5116561;28;20490;-70
2022/04/07 00:56:42;;;;;;;4.30;3.17;;;10.70;1.00;;;;;;5117635;28;20453;-70
2022/04/07 00:59:11;;;;;;;9.00;3.03;;;10.70;1.00;;;;;;5118364;28;20456;-71
2022/04/07 01:01:38;;;;;;;3.77;3.00;;;10.60;1.00;;;;;;5117689;28;20491;-71
2022/04/07 01:04:05;;;;;;;6.17;3.20;;;10.60;1.00;;;;;;5118515;28;20461;-71
2022/04/07 01:06:32;;;;;;;3.37;2.83;;;10.60;1.00;;;;;;5120109;28;20464;-71
2022/04/07 01:08:59;;;;;;;5.10;2.77;;;10.60;1.00;;;;;;5117916;28;20901;-71
2022/04/07 01:11:29;;;;;;;7.17;3.33;;;10.50;99.90;;;;;;5116098;28;20463;-71
2022/04/07 01:13:56;;;;;;;5.90;3.27;;;10.50;99.90;;;;;;5115924;28;20533;-70
2022/04/07 01:16:27;;;;;;;3.20;2.73;;;10.50;99.90;;;;;;5115535;28;20932;-70
2022/04/07 01:18:56;;;;;;;3.30;3.00;;;10.50;99.90;;;;;;5115934;28;20441;-70
2022/04/07 01:21:22;;;;;;;5.87;2.73;;;10.50;99.90;;;;;;5115484;28;20476;-71
2022/04/07 01:23:56;;;;;;;4.87;2.93;;;10.50;99.90;;;;;;5115768;28;20911;-71
2022/04/07 01:26:26;;;;;;;3.60;2.50;;;10.50;99.90;;;;;;5117235;28;20859;-71
2022/04/07 01:28:53;;;;;;;4.73;2.57;;;10.50;99.90;;;;;;5115884;28;20456;-71
2022/04/07 01:31:19;;;;;;;3.30;2.97;;;10.50;99.90;;;;;;5115832;28;20449;-71
2022/04/07 01:33:46;;;;;;;6.00;3.03;;;10.50;1.00;;;;;;5115485;28;20459;-71
2022/04/07 01:36:16;;;;;;;6.17;2.80;;;10.50;1.00;;;;;;5115390;28;20460;-71
2022/04/07 01:38:47;;;;;;;3.63;2.70;;;10.50;1.00;;;;;;5115853;28;20463;-70
2022/04/07 01:41:14;;;;;;;3.37;2.70;;;10.50;1.00;;;;;;5115722;28;20465;-73
2022/04/07 01:43:43;;;;;;;3.23;2.77;;;10.50;1.00;;;;;;5115482;28;20829;-71
2022/04/07 01:46:12;;;;;;;8.33;3.37;;;10.50;99.90;;;;;;5114861;28;20453;-71
2022/04/07 01:48:39;;;;;;;5.57;3.07;;;10.40;99.90;;;;;;5115377;28;20554;-73
2022/04/07 01:51:07;;;;;;;5.00;3.60;;;10.40;99.90;;;;;;5115348;28;20460;-71
2022/04/07 01:53:36;;;;;;;8.20;3.80;;;10.40;1.00;;;;;;5115078;28;20452;-71
2022/04/07 01:56:05;;;;;;;7.47;4.47;;;10.40;50.80;;;;;;5114706;28;20468;-71
2022/04/07 01:58:35;;;;;;;4.97;3.60;;;10.30;99.90;;;;;;5114985;28;20467;-71
2022/04/07 02:01:03;;;;;;;4.80;4.00;;;10.40;99.90;;;;;;5115152;28;20470;-71
2022/04/07 02:03:30;;;;;;;5.77;3.03;;;10.40;99.90;;;;;;5115039;28;20456;-71
2022/04/07 02:06:12;;;;;;;5.10;3.40;;;10.40;1.00;;;;;;5114802;28;20913;-71
2022/04/07 02:08:39;;;;;;;4.57;3.57;;;10.40;1.00;;;;;;5114979;28;20532;-71
2022/04/07 02:11:06;;;;;;;5.47;4.23;;;10.40;1.00;;;;;;5115048;28;20467;-71
2022/04/07 02:13:33;;;;;;;7.73;3.70;;;10.40;1.00;;;;;;5114825;28;20769;-71
2022/04/07 02:16:01;;;;;;;5.60;3.70;;;10.40;1.00;;;;;;5114793;28;20488;-71
2022/04/07 02:18:29;;;;;;;4.97;3.80;;;10.40;15.40;;;;;;5114908;28;20509;-71
2022/04/07 02:20:55;;;;;;;6.53;4.07;;;10.40;1.00;;;;;;5115083;28;20786;-71
2022/04/07 02:23:22;;;;;;;6.73;3.90;;;10.40;99.90;;;;;;5114857;28;20537;-71
2022/04/07 02:25:49;;;;;;;6.20;4.37;;;10.40;99.90;;;;;;5114884;28;20453;-71
2022/04/07 02:28:15;;;;;;;6.03;4.30;;;10.40;99.90;;;;;;5115042;28;20460;-71
2022/04/07 02:30:42;;;;;;;6.40;4.23;;;10.30;1.00;;;;;;5114957;28;20479;-71
2022/04/07 02:33:09;;;;;;;5.23;4.33;;;10.30;1.00;;;;;;5114665;28;20456;-71
2022/04/07 02:35:37;;;;;;;7.53;5.20;;;10.30;1.00;;;;;;5114680;28;20456;-71
2022/04/07 02:38:04;;;;;;;5.50;4.13;;;10.20;1.00;;;;;;5114295;28;20519;-70
2022/04/07 02:40:30;;;;;;;6.00;4.60;;;10.20;10.80;;;;;;5118635;28;20452;-70
2022/04/07 02:42:57;;;;;;;5.53;4.30;;;10.20;99.90;;;;;;5121849;28;20480;-70
2022/04/07 02:45:24;;;;;;;7.43;4.70;;;10.20;99.90;;;;;;5120274;28;20573;-73
2022/04/07 02:47:50;;;;;;;6.73;4.37;;;10.10;99.90;;;;;;5115288;28;20797;-71
2022/04/07 02:50:17;;;;;;;6.30;4.40;;;10.10;99.90;;;;;;5114939;28;20456;-70
2022/04/07 02:52:45;;;;;;;8.20;5.20;;;10.10;99.90;;;;;;5114823;28;20480;-70
2022/04/07 02:55:12;;;;;;;6.73;5.17;;;10.10;99.90;;;;;;5114467;28;20480;-70
2022/04/07 02:57:39;;;;;;;7.10;4.47;;;10.10;99.90;;;;;;5114934;28;20916;-70
2022/04/07 03:00:07;;;;;;;5.03;4.53;;;10.10;99.90;;;;;;5118137;28;20463;-70
2022/04/07 03:02:34;;;;;;;6.67;4.87;;;10.10;99.90;;;;;;5118219;28;20601;-70
2022/04/07 03:05:01;;;;;;;6.47;4.40;;;10.00;99.90;;;;;;5117977;28;20452;-70
2022/04/07 03:07:28;;;;;;;5.80;5.20;;;10.00;1.00;;;;;;5118244;28;20472;-70
2022/04/07 03:09:56;;;;;;;10.80;5.20;;;10.00;1.00;;;;;;5117782;28;20467;-70
2022/04/07 03:12:23;;;;;;;5.07;4.57;;;10.00;1.00;;;;;;5118187;28;20444;-71
2022/04/07 03:14:49;;;;;;;8.70;4.73;;;10.00;1.00;;;;;;5118059;28;20457;-70
2022/04/07 03:17:16;;;;;;;6.90;5.07;;;9.90;1.00;;;;;;5118450;28;20467;-70
2022/04/07 03:19:43;;;;;;;5.00;4.50;;;9.90;1.00;;;;;;5118517;28;20456;-70
2022/04/07 03:22:09;;;;;;;7.47;5.00;;;9.90;1.00;;;;;;5118686;28;20506;-71
2022/04/07 03:24:36;;;;;;;4.93;4.30;;;9.90;1.00;;;;;;5120096;28;20493;-71
2022/04/07 03:27:05;;;;;;;6.03;4.27;;;9.90;1.00;;;;;;5121669;28;20460;-71
2022/04/07 03:29:34;;;;;;;5.77;4.60;;;9.90;1.00;;;;;;5118341;28;20471;-71
2022/04/07 03:32:00;;;;;;;8.27;4.53;;;9.80;1.00;;;;;;5118313;28;20491;-71
2022/04/07 03:34:27;;;;;;;8.60;4.97;;;9.80;1.00;;;;;;5118621;28;20468;-71
2022/04/07 03:36:54;;;;;;;6.20;5.20;;;9.90;1.00;;;;;;5118273;28;20773;-71
2022/04/07 03:39:21;;;;;;;7.87;5.37;;;9.80;1.00;;;;;;5117880;28;20456;-71
2022/04/07 03:41:48;;;;;;;7.13;4.40;;;9.80;1.00;;;;;;5117724;28;20476;-71
2022/04/07 03:44:16;;;;;;;6.30;5.00;;;9.80;1.00;;;;;;5117997;28;20460;-71
2022/04/07 03:46:42;;;;;;;7.53;5.20;;;9.90;1.00;;;;;;5117081;28;20463;-71
2022/04/07 03:49:09;;;;;;;5.70;5.10;;;9.80;1.00;;;;;;5117621;28;20471;-71
2022/04/07 03:51:36;;;;;;;6.00;4.80;;;9.90;1.00;;;;;;5117415;28;20516;-71
2022/04/07 03:54:03;;;;;;;4.63;4.20;;;9.80;1.00;;;;;;5116994;28;20526;-71
2022/04/07 03:56:29;;;;;;;6.27;5.07;;;9.80;1.00;;;;;;5118031;28;20541;-71
2022/04/07 03:58:58;;;;;;;7.30;5.60;;;9.80;1.00;;;;;;5117483;28;20452;-71
2022/04/07 04:01:26;;;;;;;9.60;5.00;;;9.90;1.00;;;;;;5117165;28;20734;-71
2022/04/07 04:03:53;;;;;;;5.60;4.40;;;9.90;1.00;;;;;;5117193;28;20477;-71
2022/04/07 04:06:19;;;;;;;5.30;4.20;;;9.90;99.90;;;;;;5117596;28;20932;-71
2022/04/07 04:08:46;;;;;;;4.83;4.33;;;9.90;99.90;;;;;;5116774;28;20453;-71
2022/04/07 04:11:13;;;;;;;5.80;4.80;;;9.90;99.90;;;;;;5117106;28;20456;-71
2022/04/07 04:13:41;;;;;;;7.47;4.70;;;9.90;99.90;;;;;;5117155;28;20445;-71
2022/04/07 04:16:08;;;;;;;7.77;4.70;;;9.90;99.90;;;;;;5117205;28;20471;-71
2022/04/07 04:18:38;;;;;;;7.53;5.23;;;9.90;99.90;;;;;;5116633;28;20456;-71
2022/04/07 04:21:08;;;;;;;5.53;4.73;;;10.00;92.80;;;;;;5116763;28;20464;-71
2022/04/07 04:23:35;;;;;;;6.00;4.90;;;10.00;55.50;;;;;;5117051;28;20492;-71
2022/04/07 04:26:04;;;;;;;6.40;5.00;;;10.00;45.40;;;;;;5116486;28;20463;-72
2022/04/07 04:28:30;;;;;;;5.60;4.80;;;10.00;41.30;;;;;;5117027;28;20452;-71
2022/04/07 04:31:00;;;;;;;4.77;4.27;;;10.10;1.00;;;;;;5116912;28;20786;-71
2022/04/07 04:33:27;;;;;;;5.97;4.67;;;10.10;1.00;;;;;;5117042;28;20461;-71
2022/04/07 04:35:55;;;;;;;6.30;4.77;;;10.00;1.00;;;;;;5116700;28;20471;-71
2022/04/07 04:38:21;;;;;;;6.10;4.43;;;10.10;1.00;;;;;;5116734;28;20818;-71
2022/04/07 04:40:48;;;;;;;5.60;4.13;;;10.10;1.00;;;;;;5117058;28;20463;-71
2022/04/07 04:43:15;;;;;;;5.60;4.40;;;10.10;1.00;;;;;;5117284;28;20491;-71
2022/04/07 04:45:41;;;;;;;5.90;4.50;;;10.10;1.00;;;;;;5116904;28;20456;-71
2022/04/07 04:48:08;;;;;;;6.50;4.63;;;10.10;1.00;;;;;;5117090;28;20456;-70
2022/04/07 04:50:35;;;;;;;6.10;4.03;;;10.20;1.00;;;;;;5117282;28;20460;-71
2022/04/07 04:53:03;;;;;;;6.67;4.43;;;10.20;1.00;;;;;;5117180;28;20507;-71
2022/04/07 04:55:30;;;;;;;6.30;4.37;;;10.20;1.00;;;;;;5116848;28;20487;-71
2022/04/07 04:57:57;;;;;;;6.50;4.23;;;10.20;1.00;;;;;;5117479;28;20457;-71
2022/04/07 05:00:24;;;;;;;6.00;4.00;;;10.30;1.00;;;;;;5116666;28;20452;-71
2022/04/07 05:02:51;;;;;;;5.07;3.90;;;10.20;1.00;;;;;;5117445;28;20944;-71
2022/04/07 05:05:18;;;;;;;5.83;3.90;;;10.30;1.00;;;;;;5116415;28;20467;-71
2022/04/07 05:07:44;;;;;;;4.37;3.53;;;10.30;1.00;;;;;;5116702;28;20468;-71
2022/04/07 05:10:13;;;;;;;5.87;3.90;;;10.30;99.90;;;;;;5116782;28;20467;-71
2022/04/07 05:12:40;;;;;;;5.00;4.00;;;10.30;99.90;;;;;;5116420;28;20448;-71
2022/04/07 05:15:07;;;;;;;5.70;3.57;;;10.40;40.70;;;;;;5116043;28;20517;-71
2022/04/07 05:17:34;;;;;;;4.53;3.60;;;10.40;1.00;;;;;;5116485;28;20475;-71
2022/04/07 05:20:01;;;;;;;5.63;3.70;;;10.40;1.00;;;;;;5115541;28;20509;-71
2022/04/07 05:22:28;;;;;;;4.80;3.63;;;10.30;1.00;;;;;;5116617;28;20488;-71
2022/04/07 05:24:55;;;;;;;5.60;4.20;;;10.30;1.00;;;;;;5115681;28;20466;-71
2022/04/07 05:27:23;;;;;;;5.77;3.50;;;10.40;1.00;;;;;;5115242;28;20929;-71
2022/04/07 05:29:49;;;;;;;4.70;3.70;;;10.30;1.00;;;;;;5115560;28;20765;-71
2022/04/07 05:32:16;;;;;;;4.30;3.70;;;10.30;99.90;;;;;;5115410;28;20526;-71
2022/04/07 05:34:43;;;;;;;3.50;3.20;;;10.30;99.90;;;;;;5115509;28;20460;-71
2022/04/07 05:37:09;;;;;;;5.93;3.80;;;10.20;99.90;;;;;;5115702;28;20456;-71
2022/04/07 05:39:36;;;;;;;5.30;3.47;;;10.20;1.00;;;;;;5115388;28;20943;-71
2022/04/07 05:42:03;;;;;;;4.53;3.30;;;10.20;1.00;;;;;;5115346;28;20745;-71
2022/04/07 05:44:31;;;;;;;4.50;3.37;;;10.20;1.00;;;;;;5115450;28;20467;-71
2022/04/07 05:46:58;;;;;;;4.57;3.43;;;10.30;1.00;;;;;;5114727;28;20905;-71
2022/04/07 05:49:25;;;;;;;7.07;3.57;;;10.30;1.00;;;;;;5115038;28;20893;-72
2022/04/07 05:51:54;;;;;;;5.20;3.40;;;10.30;1.00;;;;;;5115214;28;20456;-71
2022/04/07 05:54:24;;;;;;;5.53;3.80;;;10.30;1.00;;;;;;5115103;28;20482;-70
2022/04/07 05:56:50;;;;;;;6.93;3.67;;;10.40;1.00;;;;;;5115378;28;20440;-71
2022/04/07 05:59:17;;;;;;;6.33;3.60;;;10.50;99.90;;;;;;5115135;28;20827;-71
2022/04/07 06:01:45;;;;;;;6.83;3.53;;;10.50;99.90;;;;;;5115373;28;20780;-71
2022/04/07 06:04:12;;;;;;;4.00;3.47;;;10.60;33.40;;;;;;5115127;28;20480;-71
2022/04/07 06:06:39;;;;;;;4.03;2.80;;;10.70;1.00;;;;;;5115187;28;20536;-71
2022/04/07 06:09:06;;;;;;;11.93;3.57;;;10.70;1.00;;;;;;5114855;28;20459;-71
2022/04/07 06:11:33;;;;;;;4.23;3.70;;;10.80;1.00;;;;;;5115291;28;20498;-71
2022/04/07 06:14:00;;;;;;;7.83;3.87;;;10.80;99.90;;;;;;5115609;28;20452;-71
2022/04/07 06:16:26;;;;;;;6.60;2.87;;;10.80;99.90;;;;;;5115188;28;20452;-71
2022/04/07 06:18:55;;;;;;;4.73;3.20;;;10.90;99.90;;;;;;5115154;28;20460;-71
2022/04/07 06:21:23;;;;;;;8.10;3.60;;;10.90;99.90;;;;;;5118043;28;20457;-71
2022/04/07 06:23:50;;;;;;;3.63;2.80;;;10.90;99.90;;;;;;5116181;28;20495;-71
2022/04/07 06:26:18;;;;;;;5.70;3.70;;;11.00;99.90;;;;;;5116855;28;20479;-71
2022/04/07 06:28:45;;;;;;;4.43;3.07;;;11.10;11.00;;;;;;5122425;28;20464;-71
2022/04/07 06:31:12;;;;;;;3.70;3.03;;;11.10;1.00;;;;;;5122727;28;20478;-71
2022/04/07 06:33:38;;;;;;;6.30;3.40;;;11.20;1.00;;;;;;5120821;28;20936;-72
2022/04/07 06:36:07;;;;;;;5.40;3.13;;;11.20;1.00;;;;;;5119435;28;20533;-71
2022/04/07 06:38:34;;;;;;;3.77;2.80;;;11.30;99.90;;;;;;5119137;28;20452;-71
2022/04/07 06:41:00;;;;;;;7.20;2.60;;;11.30;99.90;;;;;;5119008;28;20456;-70
2022/04/07 06:43:27;;;;;;;3.60;2.17;;;11.40;21.70;;;;;;5118849;28;20472;-70
2022/04/07 06:45:54;;;;;;;4.23;3.17;;;11.40;1.00;;;;;;5119034;28;20456;-72
2022/04/07 06:48:21;;;;;;;4.10;2.27;;;11.50;1.00;;;;;;5118991;28;20456;-71
2022/04/07 06:50:48;;;;;;;2.93;2.60;;;11.50;1.00;;;;;;5118621;28;20962;-71
2022/04/07 06:53:16;;;;;;;3.67;2.70;;;11.60;1.00;;;;;;5118753;28;20463;-71
2022/04/07 06:55:44;;;;;;;3.50;2.60;;;11.60;99.90;;;;;;5118336;28;20956;-71
2022/04/07 06:58:11;;;;;;;3.77;2.43;;;11.50;32.60;;;;;;5118487;28;20492;-71
2022/04/07 07:00:43;;;;;;;4.83;2.50;;;11.50;1.00;;;;;;5118733;28;20767;-72
2022/04/07 07:03:11;;;;;;;4.97;2.80;;;11.50;1.00;;;;;;5118553;28;20525;-70
2022/04/07 07:05:39;;;;;;;3.33;2.93;;;11.50;1.00;;;;;;5118572;28;20459;-70
2022/04/07 07:08:18;;;;;;;3.80;2.87;;;11.50;99.90;;;;;;5118461;28;20456;-71
2022/04/07 07:10:46;;;;;;;3.07;2.60;;;11.50;99.90;;;;;;5118998;28;20497;-71
2022/04/07 07:13:14;;;;;;;4.80;3.23;;;11.60;1.00;;;;;;5118257;28;20508;-70
2022/04/07 07:15:40;;;;;;;3.30;2.97;;;11.60;1.00;;;;;;5118089;28;20486;-70
2022/04/07 07:18:08;;;;;;;6.30;2.77;;;11.60;1.00;;;;;;5118191;28;20463;-70
2022/04/07 07:20:35;;;;;;;6.37;3.00;;;11.70;1.00;;;;;;5118295;28;20773;-71
2022/04/07 07:23:02;;;;;;;2.80;2.50;;;11.80;99.90;;;;;;5118357;28;20484;-71
2022/04/07 07:25:31;;;;;;;3.53;2.87;;;11.90;99.90;;;;;;5118219;28;20779;-71
2022/04/07 07:27:58;;;;;;;2.93;2.33;;;12.00;99.90;;;;;;5118105;28;20512;-71
2022/04/07 07:30:25;;;;;;;4.40;3.27;;;12.10;1.00;;;;;;5118308;28;20468;-71
2022/04/07 07:32:53;;;;;;;2.87;2.63;;;12.20;1.00;;;;;;5117673;28;20456;-70
2022/04/07 07:35:21;;;;;;;2.47;1.93;;;12.20;99.90;;;;;;5117777;28;20557;-70
2022/04/07 07:37:50;;;;;;;4.93;2.23;;;12.20;99.90;;;;;;5117440;28;20814;-71
2022/04/07 07:40:17;;;;;;;3.50;2.27;;;12.30;99.90;;;;;;5117543;28;20462;-71
2022/04/07 07:42:47;;;;;;;2.13;1.90;;;12.30;99.90;;;;;;5117693;28;20816;-72
2022/04/07 07:45:14;;;;;;;2.47;2.27;;;12.30;99.90;;;;;;5117508;28;20547;-69
2022/04/07 07:47:41;;;;;;;3.00;2.80;;;12.30;99.90;;;;;;5117755;28;20466;-71
2022/04/07 07:50:08;;;;;;;2.23;2.03;;;12.40;44.60;;;;;;5117378;28;20457;-71
2022/04/07 07:52:35;;;;;;;2.67;2.17;;;12.50;1.00;;;;;;5117787;28;20452;-71
2022/04/07 07:55:03;;;;;;;2.20;2.00;;;12.60;1.00;;;;;;5117162;28;20480;-71
2022/04/07 07:57:30;;;;;;;3.03;1.80;;;12.70;1.00;;;;;;5117344;28;20456;-70
2022/04/07 07:59:59;;;;;;;2.03;1.60;;;12.80;1.00;;;;;;5117358;28;20476;-71
2022/04/07 08:02:26;;;;;;;2.80;1.80;;;12.90;1.00;;;;;;5117436;28;20505;-71
2022/04/07 08:04:53;;;;;;;3.37;1.80;;;12.90;1.00;;;;;;5117492;28;20481;-71
2022/04/07 08:07:21;;;;;;;1.70;1.60;;;12.90;1.00;;;;;;5117178;28;20807;-71
2022/04/07 08:09:48;;;;;;;3.27;1.50;;;12.80;1.00;;;;;;5117523;28;20463;-71
2022/04/07 08:12:15;;;;;;;4.97;1.80;;;12.80;1.00;;;;;;5116945;28;20456;-71
2022/04/07 08:14:43;;;;;;;1.87;1.63;;;12.80;1.00;;;;;;5116916;28;20448;-71
2022/04/07 08:17:11;;;;;;;1.87;1.70;;;12.80;1.00;;;;;;5117188;28;20463;-70
2022/04/07 08:19:40;;;;;;;1.70;1.60;;;12.80;1.00;;;;;;5116925;28;20921;-71
2022/04/07 08:22:06;;;;;;;5.70;1.77;;;12.80;1.00;;;;;;5116705;28;20499;-70
2022/04/07 08:24:33;;;;;;;2.20;2.00;;;12.80;1.00;;;;;;5116943;28;20472;-71
2022/04/07 08:27:00;;;;;;;1.93;1.50;;;12.90;1.00;;;;;;5117149;28;20466;-70
2022/04/07 08:29:27;;;;;;;2.00;1.50;;;12.90;1.00;;;;;;5116664;28;20445;-70
2022/04/07 08:31:53;;;;;;;2.63;1.40;;;13.10;1.00;;;;;;5117137;28;20461;-71
2022/04/07 08:34:22;;;;;;;1.60;1.50;;;13.30;1.00;;;;;;5116893;28;20452;-71
2022/04/07 08:36:49;;;;;;;2.27;1.70;;;13.40;1.00;;;;;;5116831;28;20862;-71
2022/04/07 08:39:16;;;;;;;2.00;1.30;;;13.30;1.00;;;;;;5116682;28;20472;-74
2022/04/07 08:41:45;;;;;;;2.00;1.40;;;13.30;1.00;;;;;;5116820;28;20464;-70
2022/04/07 08:44:12;;;;;;;5.10;1.57;;;13.50;1.00;;;;;;5117403;28;20533;-70
2022/04/07 08:46:41;;;;;;;2.97;1.70;;;13.60;1.00;;;;;;5116413;28;20526;-70
2022/04/07 08:49:08;;;;;;;2.60;1.27;;;13.70;99.90;;;;;;5116991;28;20471;-70
2022/04/07 08:51:37;;;;;;;2.07;1.17;;;13.70;99.90;;;;;;5117356;28;20463;-70
2022/04/07 08:54:03;;;;;;;2.07;1.30;;;13.70;99.90;;;;;;5117339;28;20449;-71
2022/04/07 08:56:30;;;;;;;4.40;1.20;;;13.80;99.90;;;;;;5116700;28;20456;-70
2022/04/07 08:58:57;;;;;;;1.80;1.40;;;13.90;99.90;;;;;;5117422;28;20548;-72
2022/04/07 09:01:24;;;;;;;1.50;1.20;;;13.90;99.90;;;;;;5117286;28;20814;-70
2022/04/07 09:03:50;;;;;;;1.60;1.00;;;13.80;99.90;;;;;;5117745;28;20850;-70
2022/04/07 09:06:21;;;;;;;1.90;1.10;;;13.80;99.90;;;;;;5116672;28;20460;-70
2022/04/07 09:08:49;;;;;;;6.50;0.97;;;13.80;99.90;;;;;;5116148;28;20459;-71
2022/04/07 09:11:19;;;;;;;1.63;1.00;;;13.80;99.90;;;;;;5116220;28;20456;-71
2022/04/07 09:13:46;;;;;;;1.53;1.10;;;13.80;99.90;;;;;;5115906;28;20458;-71
2022/04/07 09:16:15;;;;;;;5.33;0.90;;;13.90;99.90;;;;;;5119726;28;20492;-71
2022/04/07 09:18:43;;;;;;;2.10;1.10;;;13.80;99.90;;;;;;5118187;28;20913;-71
2022/04/07 09:21:24;;;;;;;1.40;1.10;;;13.90;99.90;;;;;;5116124;28;20460;-70
2022/04/07 09:23:55;;;;;;;3.57;1.20;;;14.00;99.90;;;;;;5116139;28;20464;-70
2022/04/07 09:26:22;;;;;;;1.30;0.90;;;14.00;99.90;;;;;;5115990;28;20437;-71
2022/04/07 09:28:50;;;;;;;1.93;1.10;;;14.00;99.90;;;;;;5116120;28;20452;-71
2022/04/07 09:31:17;;;;;;;1.30;0.90;;;14.00;99.90;;;;;;5115522;28;20452;-69
2022/04/07 09:33:53;;;;;;;1.43;1.20;;;14.10;99.90;;;;;;5116138;28;20452;-71
2022/04/07 09:36:21;;;;;;;5.33;1.20;;;14.20;99.90;;;;;;5115740;28;20446;-70
2022/04/07 09:38:52;;;;;;;2.43;1.10;;;14.30;99.90;;;;;;5116694;28;20784;-70
2022/04/07 09:41:20;;;;;;;2.07;0.97;;;14.30;99.90;;;;;;5115782;28;20441;-70
2022/04/07 09:43:48;;;;;;;1.50;0.87;;;14.30;99.90;;;;;;5115487;28;20480;-70
2022/04/07 09:46:16;;;;;;;2.43;1.10;;;14.30;99.90;;;;;;5115326;28;20463;-70
2022/04/07 09:49:01;;;;;;;2.67;0.90;;;14.40;99.90;;;;;;5115476;28;20453;-70
2022/04/07 09:51:28;;;;;;;1.33;0.90;;;14.40;99.90;;;;;;5115411;28;20447;-70
2022/04/07 09:53:58;;;;;;;4.57;0.93;;;14.40;99.90;;;;;;5114727;28;20567;-71
2022/04/07 09:56:28;;;;;;;1.27;0.90;;;14.40;99.90;;;;;;5115428;28;20441;-70
2022/04/07 09:58:55;;;;;;;1.97;0.90;;;14.30;99.90;;;;;;5115543;28;20828;-71
2022/04/07 10:01:22;;;;;;;1.20;0.80;;;14.20;99.90;;;;;;5115392;28;20452;-71
2022/04/07 10:03:53;;;;;;;1.40;0.90;;;14.30;99.90;;;;;;5115140;28;20480;-71
2022/04/07 10:06:20;;;;;;;2.87;1.00;;;14.30;99.90;;;;;;5115401;28;20489;-69
2022/04/07 10:08:51;;;;;;;2.70;0.90;;;14.30;99.90;;;;;;5114944;28;20459;-70
2022/04/07 10:11:19;;;;;;;1.70;0.80;;;14.20;99.90;;;;;;5115476;28;20935;-70
2022/04/07 10:13:48;;;;;;;1.30;0.80;;;14.20;99.90;;;;;;5120367;28;20456;-73
2022/04/07 10:16:16;;;;;;;1.30;1.03;;;14.20;99.90;;;;;;5121592;28;20449;-70
2022/04/07 10:18:55;;;;;;;3.87;1.00;;;14.20;99.90;;;;;;5119932;28;20445;-71
2022/04/07 10:21:37;;;;;;;1.10;0.70;;;14.30;99.90;;;;;;5115537;28;20804;-71
2022/04/07 10:24:21;;;;;;;5.70;1.33;;;14.40;99.90;;;;;;5116476;28;20461;-69
2022/04/07 10:26:50;;;;;;;1.20;0.80;;;14.50;99.90;;;;;;5115380;28;20444;-71
2022/04/07 10:29:22;;;;;;;1.30;0.80;;;14.50;99.90;;;;;;5115140;28;20460;-73
2022/04/07 10:32:18;;;;;;;1.83;0.87;;;14.40;99.90;;;;;;5115191;28;20775;-70
2022/04/07 10:34:55;;;;;;;1.57;0.90;;;14.30;99.90;;;;;;5114865;28;20459;-72
2022/04/07 10:37:29;;;;;;;2.37;0.90;;;14.30;99.90;;;;;;5115330;28;20893;-71
2022/04/07 10:39:56;;;;;;;3.53;0.90;;;14.30;99.90;;;;;;5115447;28;20436;-71
2022/04/07 10:42:56;;;;;;;1.37;1.00;;;14.20;99.90;;;;;;5115023;28;20456;-70
2022/04/07 10:45:33;;;;;;;5.57;1.10;;;14.20;99.90;;;;;;5114925;28;20476;-71
2022/04/07 10:48:28;;;;;;;1.93;0.90;;;14.20;99.90;;;;;;5115028;28;20769;-70
2022/04/07 10:50:57;;;;;;;4.03;1.30;;;14.10;99.90;;;;;;5114978;28;20497;-70
2022/04/07 10:53:27;;;;;;;2.10;0.90;;;13.90;99.90;;;;;;5114952;28;20448;-70
2022/04/07 10:56:02;;;;;;;1.20;0.90;;;13.70;99.90;;;;;;5114234;28;20807;-70
2022/04/07 10:58:49;;;;;;;1.20;0.80;;;13.70;99.90;;;;;;5115717;28;20444;-70
2022/04/07 11:01:48;;;;;;;3.00;0.90;;;13.60;1.00;;;;;;5114469;28;20465;-70
2022/04/07 11:04:47;;;;;;;1.63;0.90;;;13.50;1.00;;;;;;5107742;28;20808;-70
2022/04/07 11:07:15;;;;;;;1.20;0.90;;;13.40;1.00;;;;;;5120744;28;20825;-72
2022/04/07 11:09:44;;;;;;;5.23;1.10;;;13.30;1.00;;;;;;5114236;28;20516;-70
2022/04/07 11:12:11;;;;;;;2.80;1.10;;;13.20;1.00;;;;;;5113858;28;20448;-70
2022/04/07 11:14:39;;;;;;;2.60;1.10;;;13.20;1.00;;;;;;5114598;28;20448;-70
2022/04/07 11:17:07;;;;;;;1.23;1.00;;;13.20;1.00;;;;;;5114325;28;20468;-70
2022/04/07 11:19:45;;;;;;;1.73;1.13;;;13.30;1.00;;;;;;5116708;28;20460;-72
2022/04/07 11:22:12;;;;;;;1.40;1.30;;;13.30;1.00;;;;;;5118141;28;20460;-71
2022/04/07 11:24:43;;;;;;;2.33;1.23;;;13.40;1.00;;;;;;5118250;28;20480;-71
2022/04/07 11:27:36;;;;;;;1.20;0.90;;;13.40;1.00;;;;;;5117933;28;20447;-71
2022/04/07 11:30:05;;;;;;;1.40;1.20;;;13.40;1.00;;;;;;5118348;28;20464;-71
2022/04/07 11:32:32;;;;;;;2.20;1.10;;;13.50;1.00;;;;;;5120042;28;20843;-72
2022/04/07 11:35:12;;;;;;;3.70;1.30;;;13.60;1.00;;;;;;5119690;28;20488;-71
2022/04/07 11:37:41;;;;;;;1.27;0.90;;;13.60;1.00;;;;;;5118138;28;20812;-70
2022/04/07 11:40:09;;;;;;;4.70;1.10;;;13.60;1.00;;;;;;5117694;28;20475;-71
2022/04/07 11:42:36;;;;;;;2.07;1.07;;;13.70;99.90;;;;;;5117865;28;20453;-71
2022/04/07 11:45:03;;;;;;;1.10;0.83;;;13.70;99.90;;;;;;5117847;28;20481;-71
2022/04/07 11:47:33;;;;;;;1.40;0.90;;;13.70;99.90;;;;;;5117728;28;20453;-71
2022/04/07 11:50:02;;;;;;;1.40;1.00;;;13.80;99.90;;;;;;5117687;28;20448;-71
2022/04/07 11:52:30;;;;;;;1.60;0.90;;;13.70;99.90;;;;;;5118119;28;20978;-71
2022/04/07 11:54:58;;;;;;;1.53;0.90;;;13.70;99.90;;;;;;5117564;28;20480;-71
2022/04/07 11:57:28;;;;;;;1.20;0.90;;;13.60;1.00;;;;;;5117556;28;20558;-71
2022/04/07 11:59:56;;;;;;;1.93;1.00;;;13.40;1.00;;;;;;5117473;28;20513;-71
2022/04/07 12:02:26;;;;;;;1.33;0.80;;;13.20;30.60;;;;;;5116814;28;20460;-71
2022/04/07 12:04:58;;;;;;;1.40;0.80;;;13.00;1.00;;;;;;5117473;28;20477;-71
2022/04/07 12:07:27;;;;;;;1.30;0.90;;;12.90;99.90;;;;;;5118262;28;20448;-71
2022/04/07 12:09:57;;;;;;;1.80;1.00;;;12.80;99.90;;;;;;5118810;28;20892;-71
2022/04/07 12:12:24;;;;;;;1.30;0.87;;;12.80;99.90;;;;;;5119538;28;20449;-71
2022/04/07 12:14:51;;;;;;;1.77;1.20;;;12.70;1.00;;;;;;5118620;28;20448;-71
2022/04/07 12:17:18;;;;;;;1.60;1.40;;;12.60;58.90;;;;;;5118578;28;20457;-71
2022/04/07 12:19:46;;;;;;;2.90;1.13;;;12.50;1.00;;;;;;5117801;28;20722;-71
2022/04/07 12:22:14;;;;;;;1.80;1.40;;;12.50;99.90;;;;;;5117243;28;20480;-71
2022/04/07 12:24:58;;;;;;;1.20;1.00;;;12.40;1.00;;;;;;5116737;28;20512;-71
2022/04/07 12:27:30;;;;;;;1.10;0.80;;;12.30;1.00;;;;;;5116036;28;20451;-71
2022/04/07 12:29:57;;;;;;;1.10;0.90;;;12.20;99.90;;;;;;5116206;28;20489;-70
2022/04/07 12:32:24;;;;;;;1.67;1.13;;;12.30;1.00;;;;;;5116794;28;20493;-70
2022/04/07 12:34:55;;;;;;;2.17;1.40;;;12.20;1.00;;;;;;5116026;28;20452;-69
2022/04/07 12:37:29;;;;;;;1.30;1.00;;;12.20;1.00;;;;;;5116288;28;20467;-70
2022/04/07 12:39:58;;;;;;;1.63;1.00;;;12.10;99.90;;;;;;5116706;28;20464;-70
2022/04/07 12:42:24;;;;;;;1.70;1.00;;;12.10;1.00;;;;;;5116730;28;20467;-71
2022/04/07 12:45:03;;;;;;;5.43;1.20;;;12.10;1.00;;;;;;5116271;28;20484;-70
2022/04/07 12:47:30;;;;;;;1.20;0.80;;;12.20;1.00;;;;;;5116373;28;20780;-70
2022/04/07 12:49:58;;;;;;;2.17;1.07;;;12.30;1.00;;;;;;5115958;28;20927;-70
2022/04/07 12:52:39;;;;;;;2.53;1.00;;;12.20;41.70;;;;;;5116742;28;20452;-70
2022/04/07 12:55:10;;;;;;;1.20;1.00;;;12.20;99.90;;;;;;5116414;28;20476;-69
2022/04/07 12:57:39;;;;;;;1.93;0.97;;;12.10;99.90;;;;;;5116351;28;20509;-70
2022/04/07 13:00:10;;;;;;;1.10;0.87;;;12.10;1.00;;;;;;5116448;28;20452;-70